createdAt,value
2023-05-08T00:01:07.626Z,54.08
2023-05-08T00:06:09.161Z,53.46
2023-05-08T00:11:10.616Z,54.39
2023-05-08T00:16:12.682Z,54.66
2023-05-08T00:21:14.324Z,54.15
2023-05-08T00:26:15.772Z,54.87
2023-05-08T00:31:17.238Z,54.54
2023-05-08T00:36:18.718Z,53.91
2023-05-08T00:41:20.167Z,55.34
2023-05-08T00:46:21.733Z,54.80
2023-05-08T00:51:23.274Z,54.30
2023-05-08T00:56:24.834Z,53.97
2023-05-08T01:01:26.368Z,54.00
2023-05-08T01:06:27.865Z,53.51
2023-05-08T01:11:45.952Z,53.53
2023-05-08T01:16:59.046Z,53.51
2023-05-08T01:22:05.742Z,53.82
2023-05-08T01:27:25.406Z,53.76
2023-05-08T01:32:28.422Z,53.59
2023-05-08T01:37:32.856Z,53.37
2023-05-08T01:42:49.461Z,53.55
2023-05-08T01:47:55.717Z,53.51
2023-05-08T01:52:58.602Z,53.68
2023-05-08T01:58:00.152Z,53.89
2023-05-08T02:03:01.676Z,52.66
2023-05-08T02:08:03.366Z,53.27
2023-05-08T02:13:04.980Z,52.88
2023-05-08T02:18:07.566Z,53.92
2023-05-08T02:23:09.020Z,52.67
2023-05-08T02:28:10.468Z,52.23
2023-05-08T02:33:12.511Z,51.83
2023-05-08T02:38:13.975Z,51.67
2023-05-08T02:43:15.417Z,53.19
2023-05-08T02:48:23.065Z,52.57
2023-05-08T02:53:35.941Z,53.12
2023-05-08T02:58:43.541Z,52.38
2023-05-08T03:03:46.145Z,51.95
2023-05-08T03:08:47.830Z,52.73
2023-05-08T03:13:49.300Z,52.64
2023-05-08T03:18:55.859Z,51.95
2023-05-08T03:23:58.121Z,52.07
2023-05-08T03:28:59.572Z,51.68
2023-05-08T03:34:01.023Z,52.45
2023-05-08T03:39:02.497Z,52.12
2023-05-08T03:44:03.999Z,51.75
2023-05-08T03:49:05.478Z,52.80
2023-05-08T03:54:07.064Z,52.31
2023-05-08T03:59:15.193Z,53.13
2023-05-08T04:04:18.253Z,53.25
2023-05-08T04:09:38.890Z,52.52
2023-05-08T04:14:44.149Z,52.62
2023-05-08T04:19:46.719Z,52.94
2023-05-08T04:24:48.169Z,52.70
2023-05-08T04:29:49.622Z,52.03
2023-05-08T04:34:51.265Z,52.32
2023-05-08T04:39:52.792Z,52.44
2023-05-08T04:44:54.362Z,53.13
2023-05-08T04:49:55.829Z,53.37
2023-05-08T04:54:57.289Z,53.28
2023-05-08T04:59:58.773Z,53.01
2023-05-08T05:05:01.308Z,52.79
2023-05-08T05:10:02.936Z,54.54
2023-05-08T05:15:04.692Z,54.01
2023-05-08T05:20:08.564Z,54.21
2023-05-08T05:25:10.358Z,53.77
2023-05-08T05:30:12.466Z,53.53
2023-05-08T05:35:14.301Z,52.97
2023-05-08T05:40:15.920Z,52.31
2023-05-08T05:45:17.370Z,51.77
2023-05-08T05:50:18.941Z,52.03
2023-05-08T05:55:20.594Z,53.04
2023-05-08T06:00:22.975Z,52.37
2023-05-08T06:05:24.562Z,51.25
2023-05-08T06:10:26.032Z,51.59
2023-05-08T06:15:27.488Z,51.44
2023-05-08T06:20:28.944Z,51.02
2023-05-08T06:25:31.030Z,50.89
2023-05-08T06:30:32.524Z,50.55
2023-05-08T06:35:34.005Z,50.19
2023-05-08T06:40:35.464Z,49.87
2023-05-08T06:45:36.918Z,49.38
2023-05-08T06:50:39.304Z,49.10
2023-05-08T07:02:02.463Z,49.17
2023-05-08T07:07:04.057Z,49.02
2023-05-08T07:12:05.609Z,48.46
2023-05-08T07:17:07.117Z,48.75
2023-05-08T07:22:08.769Z,46.82
2023-05-08T07:27:10.343Z,46.19
2023-05-08T07:32:11.928Z,45.94
2023-05-08T07:37:13.422Z,45.76
2023-05-08T07:42:14.921Z,46.04
2023-05-08T07:47:16.491Z,45.16
2023-05-08T07:52:18.037Z,45.50
2023-05-08T07:57:19.565Z,46.23
2023-05-08T08:02:21.383Z,45.83
2023-05-08T08:07:22.960Z,46.09
2023-05-08T08:12:24.447Z,46.61
2023-05-08T08:17:28.452Z,47.01
2023-05-08T08:22:30.592Z,46.34
2023-05-08T08:27:32.254Z,46.29
2023-05-08T08:32:33.777Z,44.83
2023-05-08T08:37:35.313Z,44.88
2023-05-08T08:42:37.371Z,45.26
2023-05-08T08:47:41.196Z,44.98
2023-05-08T08:53:02.099Z,45.98
2023-05-08T08:58:13.629Z,44.96
2023-05-08T09:03:15.530Z,44.62
2023-05-08T09:08:18.688Z,45.77
2023-05-08T09:13:20.250Z,45.02
2023-05-08T09:18:21.772Z,45.05
2023-05-08T09:23:23.314Z,46.76
2023-05-08T09:28:25.335Z,45.41
2023-05-08T09:33:27.982Z,45.50
2023-05-08T09:38:37.464Z,45.20
2023-05-08T09:43:39.099Z,45.45
2023-05-08T09:48:40.606Z,45.25
2023-05-08T09:53:42.118Z,45.23
2023-05-08T09:58:44.190Z,44.97
2023-05-08T10:03:49.258Z,45.88
2023-05-08T10:09:06.601Z,45.14
2023-05-08T10:14:08.330Z,44.18
2023-05-08T10:19:14.538Z,44.53
2023-05-08T10:24:17.605Z,45.44
2023-05-08T10:29:21.852Z,45.09
2023-05-08T10:34:23.409Z,43.78
2023-05-08T10:39:25.715Z,44.23
2023-05-08T10:44:27.338Z,44.59
2023-05-08T10:49:38.768Z,44.29
2023-05-08T10:55:04.639Z,42.71
2023-05-08T11:00:06.879Z,43.25
2023-05-08T11:05:16.359Z,41.88
2023-05-08T11:10:17.856Z,42.47
2023-05-08T11:15:24.135Z,42.61
2023-05-08T11:20:39.834Z,42.05
2023-05-08T11:25:41.946Z,42.41
2023-05-08T11:30:44.330Z,42.04
2023-05-08T11:35:50.012Z,41.76
2023-05-08T11:40:58.397Z,41.10
2023-05-08T11:46:04.292Z,40.27
2023-05-08T11:51:06.093Z,40.30
2023-05-08T11:56:08.129Z,40.56
2023-05-08T12:01:09.565Z,41.21
2023-05-08T12:06:11.103Z,41.93
2023-05-08T12:11:12.642Z,40.65
2023-05-08T12:16:14.218Z,41.93
2023-05-08T12:21:16.096Z,41.50
2023-05-08T12:26:17.597Z,41.61
2023-05-08T12:31:19.110Z,42.14
2023-05-08T12:36:21.092Z,41.20
2023-05-08T12:41:24.024Z,41.50
2023-05-08T12:46:25.675Z,41.59
2023-05-08T12:51:30.932Z,41.84
2023-05-08T12:56:32.431Z,41.49
2023-05-08T13:01:33.972Z,42.09
2023-05-08T13:06:35.541Z,41.15
2023-05-08T13:11:38.418Z,43.96
2023-05-08T13:16:46.263Z,42.58
2023-05-08T13:21:48.146Z,41.65
2023-05-08T13:26:49.703Z,41.27
2023-05-08T13:31:51.223Z,40.41
2023-05-08T13:36:52.904Z,39.13
2023-05-08T13:41:54.400Z,39.57
2023-05-08T13:46:55.905Z,38.86
2023-05-08T13:51:57.537Z,39.17
2023-05-08T13:56:59.029Z,38.79
2023-05-08T14:02:00.625Z,38.05
2023-05-08T14:07:04.399Z,38.51
2023-05-08T14:12:05.916Z,38.41
2023-05-08T14:17:07.488Z,38.01
2023-05-08T14:22:08.975Z,39.21
2023-05-08T14:27:10.546Z,38.65
2023-05-08T14:32:12.115Z,39.08
2023-05-08T14:37:13.666Z,38.96
2023-05-08T14:42:22.980Z,38.08
2023-05-08T14:47:25.704Z,40.15
2023-05-08T14:52:27.253Z,39.66
2023-05-08T14:57:28.798Z,39.33
2023-05-08T15:02:30.433Z,38.96
2023-05-08T15:07:31.995Z,40.38
2023-05-08T15:12:33.497Z,40.97
2023-05-08T15:17:36.438Z,40.87
2023-05-08T15:22:38.113Z,40.98
2023-05-08T15:27:39.720Z,40.76
2023-05-08T15:32:43.285Z,42.01
2023-05-08T15:37:44.874Z,41.04
2023-05-08T15:42:46.408Z,41.06
2023-05-08T15:47:47.991Z,40.79
2023-05-08T15:52:49.681Z,40.85
2023-05-08T15:57:51.240Z,40.67
2023-05-08T16:02:52.800Z,40.67
2023-05-08T16:07:55.545Z,40.57
2023-05-08T16:12:57.100Z,41.07
2023-05-08T16:17:58.632Z,41.88
2023-05-08T16:23:00.185Z,41.44
2023-05-08T16:28:01.983Z,41.56
2023-05-08T16:33:03.653Z,42.20
2023-05-08T16:38:06.104Z,41.69
2023-05-08T16:43:08.654Z,42.10
2023-05-08T16:48:10.392Z,42.49
2023-05-08T16:53:11.996Z,41.81
2023-05-08T16:58:13.502Z,41.34
2023-05-08T17:03:15.092Z,41.41
2023-05-08T17:08:16.722Z,41.78
2023-05-08T17:13:18.359Z,42.04
2023-05-08T17:18:19.898Z,42.15
2023-05-08T17:23:21.428Z,41.82
2023-05-08T17:28:22.919Z,42.37
2023-05-08T17:33:24.494Z,42.05
2023-05-08T17:38:25.997Z,42.85
2023-05-08T17:43:28.624Z,42.19
2023-05-08T17:48:30.133Z,42.35
2023-05-08T17:53:31.879Z,44.23
2023-05-08T17:58:33.404Z,44.44
2023-05-08T18:03:34.958Z,45.29
2023-05-08T18:08:36.517Z,45.04
2023-05-08T18:13:38.127Z,45.71
2023-05-08T18:18:39.614Z,46.28
2023-05-08T18:23:41.144Z,46.19
2023-05-08T18:28:43.388Z,45.98
2023-05-08T18:33:45.937Z,45.99
2023-05-08T18:38:47.432Z,45.26
2023-05-08T18:43:48.946Z,45.83
2023-05-08T18:48:50.490Z,45.98
2023-05-08T18:53:51.989Z,46.86
2023-05-08T18:58:53.494Z,47.16
2023-05-08T19:03:55.113Z,46.43
2023-05-08T19:08:56.656Z,47.24
2023-05-08T19:13:58.157Z,46.69
2023-05-08T19:18:59.666Z,46.87
2023-05-08T19:24:01.361Z,47.30
2023-05-08T19:29:02.856Z,46.98
2023-05-08T19:34:04.375Z,48.11
2023-05-08T19:39:05.913Z,46.86
2023-05-08T19:44:07.414Z,47.54
2023-05-08T19:49:08.916Z,47.77
2023-05-08T19:54:10.433Z,47.35
2023-05-08T19:59:11.961Z,47.79
2023-05-08T20:04:13.626Z,47.54
2023-05-08T20:09:15.132Z,47.11
2023-05-08T20:14:16.630Z,47.34
2023-05-08T20:19:22.029Z,47.14
2023-05-08T20:24:23.597Z,47.42
2023-05-08T20:29:25.119Z,47.60
2023-05-08T20:34:26.601Z,48.02
2023-05-08T20:39:28.104Z,48.03
2023-05-08T20:44:29.584Z,48.04
2023-05-08T20:49:31.486Z,48.15
2023-05-08T20:54:33.040Z,49.27
2023-05-08T20:59:34.519Z,48.79
2023-05-08T21:04:36.570Z,50.42
2023-05-08T21:09:38.138Z,49.52
2023-05-08T21:14:39.625Z,49.03
2023-05-08T21:19:41.240Z,48.96
2023-05-08T21:24:43.574Z,48.95
2023-05-08T21:29:44.934Z,48.39
2023-05-08T21:34:46.426Z,47.82
2023-05-08T21:39:47.950Z,49.42
2023-05-08T21:44:49.442Z,49.88
2023-05-08T21:49:51.016Z,49.04
2023-05-08T21:54:52.823Z,49.79
2023-05-08T21:59:54.375Z,48.49
2023-05-08T22:04:55.879Z,49.18
2023-05-08T22:09:57.365Z,47.87
2023-05-08T22:14:58.857Z,48.51
2023-05-08T22:20:00.340Z,47.86
2023-05-08T22:25:01.960Z,47.69
2023-05-08T22:30:03.570Z,47.47
2023-05-08T22:35:06.148Z,47.92
2023-05-08T22:40:08.196Z,47.52
2023-05-08T22:45:10.667Z,48.50
2023-05-08T22:50:12.320Z,48.75
2023-05-08T22:55:15.483Z,47.30
2023-05-08T23:00:17.430Z,47.47
2023-05-08T23:05:18.982Z,46.99
2023-05-08T23:10:20.550Z,47.45
2023-05-08T23:15:22.085Z,46.97
2023-05-08T23:20:23.618Z,47.21
2023-05-08T23:25:25.241Z,47.25
2023-05-08T23:30:26.777Z,47.02
2023-05-08T23:35:28.433Z,48.27
2023-05-08T23:40:29.937Z,47.06
2023-05-08T23:45:31.447Z,47.98
2023-05-08T23:50:32.950Z,47.08
2023-05-08T23:55:37.897Z,47.95
